sensor_id;sensor_type;location;lat;lon;timestamp;P1;durP1;ratioP1;P2;durP2;ratioP2
75700;SDS011;64321;48.796;44.740;2023-03-21T00:04:23;14.55;;;4.65;;
75700;SDS011;64321;48.796;44.740;2023-03-21T00:09:26;10.93;;;4.57;;
75700;SDS011;64321;48.796;44.740;2023-03-21T00:14:29;12.77;;;3.92;;
75700;SDS011;64321;48.796;44.740;2023-03-21T00:19:32;13.80;;;4.13;;
75700;SDS011;64321;48.796;44.740;2023-03-21T00:24:34;15.65;;;4.13;;
75700;SDS011;64321;48.796;44.740;2023-03-21T00:29:36;13.52;;;4.60;;
75700;SDS011;64321;48.796;44.740;2023-03-21T00:34:39;12.45;;;3.80;;
75700;SDS011;64321;48.796;44.740;2023-03-21T00:40:01;10.93;;;3.92;;
75700;SDS011;64321;48.796;44.740;2023-03-21T00:45:05;9.68;;;4.03;;
75700;SDS011;64321;48.796;44.740;2023-03-21T00:50:11;13.43;;;3.97;;
75700;SDS011;64321;48.796;44.740;2023-03-21T00:55:14;12.00;;;4.03;;
75700;SDS011;64321;48.796;44.740;2023-03-21T01:00:17;9.88;;;3.50;;
75700;SDS011;64321;48.796;44.740;2023-03-21T01:05:19;13.57;;;4.22;;
75700;SDS011;64321;48.796;44.740;2023-03-21T01:10:43;18.55;;;6.32;;
75700;SDS011;64321;48.796;44.740;2023-03-21T01:15:47;21.98;;;8.68;;
75700;SDS011;64321;48.796;44.740;2023-03-21T01:20:50;24.40;;;8.15;;
75700;SDS011;64321;48.796;44.740;2023-03-21T01:25:52;25.25;;;8.65;;
75700;SDS011;64321;48.796;44.740;2023-03-21T01:30:55;27.63;;;9.15;;
75700;SDS011;64321;48.796;44.740;2023-03-21T01:35:58;25.33;;;9.77;;
75700;SDS011;64321;48.796;44.740;2023-03-21T01:41:19;22.33;;;9.32;;
75700;SDS011;64321;48.796;44.740;2023-03-21T01:46:31;28.38;;;10.30;;
75700;SDS011;64321;48.796;44.740;2023-03-21T01:52:11;24.65;;;10.52;;
75700;SDS011;64321;48.796;44.740;2023-03-21T01:57:27;23.25;;;8.25;;
75700;SDS011;64321;48.796;44.740;2023-03-21T02:02:48;30.92;;;9.32;;
75700;SDS011;64321;48.796;44.740;2023-03-21T02:08:20;22.38;;;8.77;;
75700;SDS011;64321;48.796;44.740;2023-03-21T02:13:39;22.13;;;8.85;;
75700;SDS011;64321;48.796;44.740;2023-03-21T02:54:39;29.90;;;12.27;;
75700;SDS011;64321;48.796;44.740;2023-03-21T02:59:51;34.45;;;11.75;;
75700;SDS011;64321;48.796;44.740;2023-03-21T03:05:13;39.75;;;11.43;;
75700;SDS011;64321;48.796;44.740;2023-03-21T03:10:30;35.58;;;10.20;;
75700;SDS011;64321;48.796;44.740;2023-03-21T03:15:44;28.85;;;10.63;;
75700;SDS011;64321;48.796;44.740;2023-03-21T03:25:59;30.95;;;9.73;;
75700;SDS011;64321;48.796;44.740;2023-03-21T03:31:04;24.45;;;7.63;;
75700;SDS011;64321;48.796;44.740;2023-03-21T03:36:17;30.67;;;9.07;;
75700;SDS011;64321;48.796;44.740;2023-03-21T03:41:44;29.85;;;8.32;;
75700;SDS011;64321;48.796;44.740;2023-03-21T03:47:26;25.50;;;8.27;;
75700;SDS011;64321;48.796;44.740;2023-03-21T03:52:41;29.67;;;10.02;;
75700;SDS011;64321;48.796;44.740;2023-03-21T03:58:00;39.88;;;11.38;;
75700;SDS011;64321;48.796;44.740;2023-03-21T04:03:07;29.65;;;12.40;;
75700;SDS011;64321;48.796;44.740;2023-03-21T04:08:14;34.53;;;10.13;;
75700;SDS011;64321;48.796;44.740;2023-03-21T04:13:22;30.92;;;8.38;;
75700;SDS011;64321;48.796;44.740;2023-03-21T04:18:42;32.97;;;9.25;;
75700;SDS011;64321;48.796;44.740;2023-03-21T04:23:44;31.30;;;10.02;;
75700;SDS011;64321;48.796;44.740;2023-03-21T04:28:48;38.08;;;11.55;;
75700;SDS011;64321;48.796;44.740;2023-03-21T04:33:56;40.80;;;12.75;;
75700;SDS011;64321;48.796;44.740;2023-03-21T04:38:59;39.72;;;11.55;;
75700;SDS011;64321;48.796;44.740;2023-03-21T04:44:03;49.05;;;11.90;;
75700;SDS011;64321;48.796;44.740;2023-03-21T04:49:06;44.72;;;11.13;;
75700;SDS011;64321;48.796;44.740;2023-03-21T04:54:08;45.08;;;10.90;;
75700;SDS011;64321;48.796;44.740;2023-03-21T04:59:12;30.80;;;10.07;;
75700;SDS011;64321;48.796;44.740;2023-03-21T05:04:15;36.92;;;10.13;;
75700;SDS011;64321;48.796;44.740;2023-03-21T05:09:17;28.65;;;9.57;;
75700;SDS011;64321;48.796;44.740;2023-03-21T05:14:20;31.33;;;10.77;;
75700;SDS011;64321;48.796;44.740;2023-03-21T05:19:27;34.50;;;9.77;;
75700;SDS011;64321;48.796;44.740;2023-03-21T05:24:38;30.17;;;10.52;;
75700;SDS011;64321;48.796;44.740;2023-03-21T05:29:51;31.35;;;10.65;;
75700;SDS011;64321;48.796;44.740;2023-03-21T05:34:53;41.78;;;12.43;;
75700;SDS011;64321;48.796;44.740;2023-03-21T05:39:56;30.42;;;10.55;;
75700;SDS011;64321;48.796;44.740;2023-03-21T05:45:05;32.67;;;11.27;;
75700;SDS011;64321;48.796;44.740;2023-03-21T05:50:09;31.45;;;10.15;;
75700;SDS011;64321;48.796;44.740;2023-03-21T05:55:13;36.78;;;10.00;;
75700;SDS011;64321;48.796;44.740;2023-03-21T06:00:16;33.83;;;10.52;;
75700;SDS011;64321;48.796;44.740;2023-03-21T06:05:35;38.72;;;11.15;;
75700;SDS011;64321;48.796;44.740;2023-03-21T06:10:40;26.67;;;9.35;;
75700;SDS011;64321;48.796;44.740;2023-03-21T06:15:43;35.05;;;10.35;;
75700;SDS011;64321;48.796;44.740;2023-03-21T06:20:50;30.65;;;9.80;;
75700;SDS011;64321;48.796;44.740;2023-03-21T06:25:52;35.08;;;11.45;;
75700;SDS011;64321;48.796;44.740;2023-03-21T06:30:58;35.05;;;10.15;;
75700;SDS011;64321;48.796;44.740;2023-03-21T06:36:02;22.77;;;8.55;;
75700;SDS011;64321;48.796;44.740;2023-03-21T06:41:05;27.42;;;9.18;;
75700;SDS011;64321;48.796;44.740;2023-03-21T06:46:14;24.80;;;8.35;;
75700;SDS011;64321;48.796;44.740;2023-03-21T06:51:17;28.67;;;9.80;;
75700;SDS011;64321;48.796;44.740;2023-03-21T06:56:32;28.40;;;9.15;;
75700;SDS011;64321;48.796;44.740;2023-03-21T07:01:37;31.00;;;10.07;;
75700;SDS011;64321;48.796;44.740;2023-03-21T07:06:41;29.23;;;9.63;;
75700;SDS011;64321;48.796;44.740;2023-03-21T07:11:43;21.85;;;8.30;;
75700;SDS011;64321;48.796;44.740;2023-03-21T07:16:46;23.92;;;8.70;;
75700;SDS011;64321;48.796;44.740;2023-03-21T07:21:48;25.35;;;10.80;;
75700;SDS011;64321;48.796;44.740;2023-03-21T07:26:50;37.60;;;12.90;;
75700;SDS011;64321;48.796;44.740;2023-03-21T07:31:52;25.40;;;11.30;;
75700;SDS011;64321;48.796;44.740;2023-03-21T07:36:56;33.03;;;11.02;;
75700;SDS011;64321;48.796;44.740;2023-03-21T07:41:59;33.72;;;10.88;;
75700;SDS011;64321;48.796;44.740;2023-03-21T07:47:10;38.08;;;15.60;;
75700;SDS011;64321;48.796;44.740;2023-03-21T07:52:12;36.53;;;12.68;;
75700;SDS011;64321;48.796;44.740;2023-03-21T07:57:15;43.25;;;14.43;;
75700;SDS011;64321;48.796;44.740;2023-03-21T08:02:18;41.88;;;16.23;;
75700;SDS011;64321;48.796;44.740;2023-03-21T08:07:20;36.35;;;14.20;;
75700;SDS011;64321;48.796;44.740;2023-03-21T08:12:22;41.00;;;15.73;;
75700;SDS011;64321;48.796;44.740;2023-03-21T08:17:26;40.00;;;18.60;;
75700;SDS011;64321;48.796;44.740;2023-03-21T08:22:28;54.90;;;19.27;;
75700;SDS011;64321;48.796;44.740;2023-03-21T08:27:31;50.60;;;18.13;;
75700;SDS011;64321;48.796;44.740;2023-03-21T08:32:33;46.25;;;19.45;;
75700;SDS011;64321;48.796;44.740;2023-03-21T08:37:36;60.22;;;19.42;;
75700;SDS011;64321;48.796;44.740;2023-03-21T08:42:38;56.92;;;20.30;;
75700;SDS011;64321;48.796;44.740;2023-03-21T08:47:41;61.35;;;21.00;;
75700;SDS011;64321;48.796;44.740;2023-03-21T08:52:44;55.33;;;19.90;;
75700;SDS011;64321;48.796;44.740;2023-03-21T08:57:46;50.10;;;18.60;;
75700;SDS011;64321;48.796;44.740;2023-03-21T09:02:48;60.53;;;16.52;;
75700;SDS011;64321;48.796;44.740;2023-03-21T09:07:52;58.92;;;13.55;;
75700;SDS011;64321;48.796;44.740;2023-03-21T09:12:55;54.15;;;14.48;;
75700;SDS011;64321;48.796;44.740;2023-03-21T09:17:58;54.38;;;13.60;;
75700;SDS011;64321;48.796;44.740;2023-03-21T09:23:14;56.05;;;14.70;;
75700;SDS011;64321;48.796;44.740;2023-03-21T09:28:16;41.45;;;7.88;;
75700;SDS011;64321;48.796;44.740;2023-03-21T09:33:18;67.20;;;7.15;;
75700;SDS011;64321;48.796;44.740;2023-03-21T09:38:22;61.00;;;5.82;;
75700;SDS011;64321;48.796;44.740;2023-03-21T09:43:35;45.75;;;9.10;;
75700;SDS011;64321;48.796;44.740;2023-03-21T09:48:53;62.05;;;7.50;;
75700;SDS011;64321;48.796;44.740;2023-03-21T09:54:06;49.90;;;10.95;;
75700;SDS011;64321;48.796;44.740;2023-03-21T09:59:18;42.53;;;9.27;;
75700;SDS011;64321;48.796;44.740;2023-03-21T10:04:21;76.13;;;9.98;;
75700;SDS011;64321;48.796;44.740;2023-03-21T10:09:24;59.47;;;7.13;;
75700;SDS011;64321;48.796;44.740;2023-03-21T10:14:35;65.57;;;7.40;;
75700;SDS011;64321;48.796;44.740;2023-03-21T10:19:38;58.97;;;8.25;;
75700;SDS011;64321;48.796;44.740;2023-03-21T10:24:40;65.85;;;8.35;;
75700;SDS011;64321;48.796;44.740;2023-03-21T10:29:43;53.67;;;7.60;;
75700;SDS011;64321;48.796;44.740;2023-03-21T10:34:52;69.80;;;8.48;;
75700;SDS011;64321;48.796;44.740;2023-03-21T10:39:57;56.42;;;8.55;;
75700;SDS011;64321;48.796;44.740;2023-03-21T10:44:59;77.18;;;7.90;;
75700;SDS011;64321;48.796;44.740;2023-03-21T10:50:06;59.65;;;6.40;;
75700;SDS011;64321;48.796;44.740;2023-03-21T11:00:20;66.63;;;8.30;;
75700;SDS011;64321;48.796;44.740;2023-03-21T11:05:34;62.08;;;7.55;;
75700;SDS011;64321;48.796;44.740;2023-03-21T11:10:47;51.88;;;11.18;;
75700;SDS011;64321;48.796;44.740;2023-03-21T11:15:55;62.40;;;9.95;;
75700;SDS011;64321;48.796;44.740;2023-03-21T11:21:05;59.30;;;7.60;;
75700;SDS011;64321;48.796;44.740;2023-03-21T11:26:15;75.53;;;8.00;;
75700;SDS011;64321;48.796;44.740;2023-03-21T11:31:17;49.30;;;6.93;;
75700;SDS011;64321;48.796;44.740;2023-03-21T11:41:32;70.93;;;13.60;;
75700;SDS011;64321;48.796;44.740;2023-03-21T11:46:39;59.85;;;12.00;;
75700;SDS011;64321;48.796;44.740;2023-03-21T11:51:47;57.85;;;10.90;;
75700;SDS011;64321;48.796;44.740;2023-03-21T11:56:52;60.75;;;9.18;;
75700;SDS011;64321;48.796;44.740;2023-03-21T12:59:02;55.90;;;9.45;;
75700;SDS011;64321;48.796;44.740;2023-03-21T13:09:13;69.20;;;11.48;;
75700;SDS011;64321;48.796;44.740;2023-03-21T13:14:23;73.63;;;14.07;;
75700;SDS011;64321;48.796;44.740;2023-03-21T13:24:46;74.90;;;17.50;;
75700;SDS011;64321;48.796;44.740;2023-03-21T13:29:50;75.70;;;18.33;;
75700;SDS011;64321;48.796;44.740;2023-03-21T13:35:00;79.53;;;18.50;;
75700;SDS011;64321;48.796;44.740;2023-03-21T13:40:04;85.53;;;20.85;;
75700;SDS011;64321;48.796;44.740;2023-03-21T13:45:21;76.32;;;17.23;;
75700;SDS011;64321;48.796;44.740;2023-03-21T13:55:27;55.03;;;15.27;;
75700;SDS011;64321;48.796;44.740;2023-03-21T14:00:30;53.60;;;10.77;;
75700;SDS011;64321;48.796;44.740;2023-03-21T14:05:32;42.55;;;9.05;;
75700;SDS011;64321;48.796;44.740;2023-03-21T14:10:37;46.45;;;8.32;;
75700;SDS011;64321;48.796;44.740;2023-03-21T14:15:45;58.70;;;10.73;;
75700;SDS011;64321;48.796;44.740;2023-03-21T14:20:56;73.70;;;13.95;;
75700;SDS011;64321;48.796;44.740;2023-03-21T14:25:59;71.13;;;13.15;;
75700;SDS011;64321;48.796;44.740;2023-03-21T14:31:01;62.90;;;14.90;;
75700;SDS011;64321;48.796;44.740;2023-03-21T14:36:18;61.75;;;14.75;;
75700;SDS011;64321;48.796;44.740;2023-03-21T14:41:25;65.60;;;17.60;;
75700;SDS011;64321;48.796;44.740;2023-03-21T14:46:27;86.82;;;20.67;;
75700;SDS011;64321;48.796;44.740;2023-03-21T14:51:29;93.60;;;23.50;;
75700;SDS011;64321;48.796;44.740;2023-03-21T14:56:32;110.80;;;27.73;;
75700;SDS011;64321;48.796;44.740;2023-03-21T15:01:37;118.32;;;28.25;;
75700;SDS011;64321;48.796;44.740;2023-03-21T15:11:53;87.72;;;21.20;;
75700;SDS011;64321;48.796;44.740;2023-03-21T15:16:56;62.63;;;14.80;;
75700;SDS011;64321;48.796;44.740;2023-03-21T15:27:17;66.28;;;13.65;;
75700;SDS011;64321;48.796;44.740;2023-03-21T15:32:20;57.42;;;11.80;;
75700;SDS011;64321;48.796;44.740;2023-03-21T15:37:27;54.70;;;14.00;;
75700;SDS011;64321;48.796;44.740;2023-03-21T15:47:39;43.97;;;8.95;;
75700;SDS011;64321;48.796;44.740;2023-03-21T15:52:42;50.05;;;10.27;;
75700;SDS011;64321;48.796;44.740;2023-03-21T15:57:44;53.88;;;9.68;;
75700;SDS011;64321;48.796;44.740;2023-03-21T16:02:49;53.90;;;7.35;;
75700;SDS011;64321;48.796;44.740;2023-03-21T16:07:57;52.80;;;8.98;;
75700;SDS011;64321;48.796;44.740;2023-03-21T16:12:59;48.25;;;10.60;;
75700;SDS011;64321;48.796;44.740;2023-03-21T16:18:02;51.03;;;8.85;;
75700;SDS011;64321;48.796;44.740;2023-03-21T16:23:05;58.83;;;8.57;;
75700;SDS011;64321;48.796;44.740;2023-03-21T16:28:11;48.92;;;9.65;;
75700;SDS011;64321;48.796;44.740;2023-03-21T16:33:15;49.05;;;9.90;;
75700;SDS011;64321;48.796;44.740;2023-03-21T16:38:17;48.50;;;11.82;;
75700;SDS011;64321;48.796;44.740;2023-03-21T16:43:19;55.47;;;10.73;;
75700;SDS011;64321;48.796;44.740;2023-03-21T16:48:21;62.80;;;10.43;;
75700;SDS011;64321;48.796;44.740;2023-03-21T16:53:23;63.65;;;11.00;;
75700;SDS011;64321;48.796;44.740;2023-03-21T16:58:26;56.40;;;10.40;;
75700;SDS011;64321;48.796;44.740;2023-03-21T17:03:30;48.67;;;10.68;;
75700;SDS011;64321;48.796;44.740;2023-03-21T17:08:32;59.67;;;11.35;;
75700;SDS011;64321;48.796;44.740;2023-03-21T17:13:34;46.25;;;10.38;;
75700;SDS011;64321;48.796;44.740;2023-03-21T17:18:37;46.50;;;11.00;;
75700;SDS011;64321;48.796;44.740;2023-03-21T17:23:39;45.50;;;9.98;;
75700;SDS011;64321;48.796;44.740;2023-03-21T17:28:41;59.80;;;12.68;;
75700;SDS011;64321;48.796;44.740;2023-03-21T17:33:44;45.13;;;9.75;;
75700;SDS011;64321;48.796;44.740;2023-03-21T17:38:46;53.35;;;11.32;;
75700;SDS011;64321;48.796;44.740;2023-03-21T17:43:48;73.53;;;10.32;;
75700;SDS011;64321;48.796;44.740;2023-03-21T17:48:52;62.60;;;9.93;;
75700;SDS011;64321;48.796;44.740;2023-03-21T17:53:55;53.28;;;12.77;;
75700;SDS011;64321;48.796;44.740;2023-03-21T17:58:59;62.33;;;10.43;;
75700;SDS011;64321;48.796;44.740;2023-03-21T18:04:01;59.28;;;11.05;;
75700;SDS011;64321;48.796;44.740;2023-03-21T18:09:06;52.42;;;13.30;;
75700;SDS011;64321;48.796;44.740;2023-03-21T18:14:12;80.35;;;22.38;;
75700;SDS011;64321;48.796;44.740;2023-03-21T18:19:19;60.95;;;17.75;;
75700;SDS011;64321;48.796;44.740;2023-03-21T18:24:22;72.43;;;17.38;;
75700;SDS011;64321;48.796;44.740;2023-03-21T18:29:24;67.90;;;18.35;;
75700;SDS011;64321;48.796;44.740;2023-03-21T18:34:46;81.82;;;21.38;;
75700;SDS011;64321;48.796;44.740;2023-03-21T18:39:49;80.72;;;21.92;;
75700;SDS011;64321;48.796;44.740;2023-03-21T18:44:52;67.45;;;20.33;;
75700;SDS011;64321;48.796;44.740;2023-03-21T18:49:54;63.85;;;16.85;;
75700;SDS011;64321;48.796;44.740;2023-03-21T18:55:14;69.10;;;17.95;;
75700;SDS011;64321;48.796;44.740;2023-03-21T19:00:16;68.03;;;19.13;;
75700;SDS011;64321;48.796;44.740;2023-03-21T19:05:23;68.00;;;17.10;;
75700;SDS011;64321;48.796;44.740;2023-03-21T19:10:25;54.20;;;13.30;;
75700;SDS011;64321;48.796;44.740;2023-03-21T19:15:28;48.60;;;12.80;;
75700;SDS011;64321;48.796;44.740;2023-03-21T19:20:35;46.85;;;12.73;;
75700;SDS011;64321;48.796;44.740;2023-03-21T19:25:38;60.72;;;10.95;;
75700;SDS011;64321;48.796;44.740;2023-03-21T19:30:41;58.55;;;9.32;;
75700;SDS011;64321;48.796;44.740;2023-03-21T19:35:51;52.88;;;10.43;;
75700;SDS011;64321;48.796;44.740;2023-03-21T19:41:13;51.42;;;10.82;;
75700;SDS011;64321;48.796;44.740;2023-03-21T19:46:15;52.67;;;10.15;;
75700;SDS011;64321;48.796;44.740;2023-03-21T19:51:19;39.83;;;9.25;;
75700;SDS011;64321;48.796;44.740;2023-03-21T19:56:29;38.88;;;7.97;;
75700;SDS011;64321;48.796;44.740;2023-03-21T20:01:32;46.28;;;8.27;;
75700;SDS011;64321;48.796;44.740;2023-03-21T20:06:34;55.60;;;8.57;;
75700;SDS011;64321;48.796;44.740;2023-03-21T20:11:37;39.50;;;9.23;;
75700;SDS011;64321;48.796;44.740;2023-03-21T20:16:39;45.30;;;11.20;;
75700;SDS011;64321;48.796;44.740;2023-03-21T20:21:44;53.97;;;10.32;;
75700;SDS011;64321;48.796;44.740;2023-03-21T20:26:55;46.95;;;10.93;;
75700;SDS011;64321;48.796;44.740;2023-03-21T20:31:58;46.08;;;11.32;;
75700;SDS011;64321;48.796;44.740;2023-03-21T20:37:00;47.65;;;12.27;;
75700;SDS011;64321;48.796;44.740;2023-03-21T20:42:04;68.20;;;15.25;;
75700;SDS011;64321;48.796;44.740;2023-03-21T20:47:06;52.95;;;13.65;;
75700;SDS011;64321;48.796;44.740;2023-03-21T20:52:09;64.53;;;17.08;;
75700;SDS011;64321;48.796;44.740;2023-03-21T20:57:31;49.70;;;15.98;;
75700;SDS011;64321;48.796;44.740;2023-03-21T21:02:34;63.28;;;14.85;;
75700;SDS011;64321;48.796;44.740;2023-03-21T21:07:37;57.50;;;16.20;;
75700;SDS011;64321;48.796;44.740;2023-03-21T21:12:39;48.40;;;15.40;;
75700;SDS011;64321;48.796;44.740;2023-03-21T21:17:43;54.50;;;15.75;;
75700;SDS011;64321;48.796;44.740;2023-03-21T21:23:06;58.28;;;18.95;;
75700;SDS011;64321;48.796;44.740;2023-03-21T21:28:10;78.95;;;23.08;;
75700;SDS011;64321;48.796;44.740;2023-03-21T21:33:12;103.10;;;30.33;;
75700;SDS011;64321;48.796;44.740;2023-03-21T21:38:16;141.00;;;41.10;;
75700;SDS011;64321;48.796;44.740;2023-03-21T21:43:18;162.13;;;48.80;;
75700;SDS011;64321;48.796;44.740;2023-03-21T21:48:21;140.68;;;44.97;;
75700;SDS011;64321;48.796;44.740;2023-03-21T21:53:24;123.70;;;39.58;;
75700;SDS011;64321;48.796;44.740;2023-03-21T21:58:29;98.45;;;27.80;;
75700;SDS011;64321;48.796;44.740;2023-03-21T22:03:34;127.25;;;39.92;;
75700;SDS011;64321;48.796;44.740;2023-03-21T22:08:42;112.95;;;32.55;;
75700;SDS011;64321;48.796;44.740;2023-03-21T22:13:48;115.80;;;36.53;;
75700;SDS011;64321;48.796;44.740;2023-03-21T22:18:50;103.70;;;32.72;;
75700;SDS011;64321;48.796;44.740;2023-03-21T22:23:53;75.70;;;22.98;;
75700;SDS011;64321;48.796;44.740;2023-03-21T22:28:55;102.38;;;32.90;;
75700;SDS011;64321;48.796;44.740;2023-03-21T22:33:58;67.03;;;19.83;;
75700;SDS011;64321;48.796;44.740;2023-03-21T22:39:01;70.90;;;21.15;;
75700;SDS011;64321;48.796;44.740;2023-03-21T22:44:03;73.75;;;21.73;;
75700;SDS011;64321;48.796;44.740;2023-03-21T22:49:05;80.93;;;21.02;;
75700;SDS011;64321;48.796;44.740;2023-03-21T22:54:08;64.90;;;20.15;;
75700;SDS011;64321;48.796;44.740;2023-03-21T22:59:10;65.07;;;16.63;;
75700;SDS011;64321;48.796;44.740;2023-03-21T23:04:12;62.55;;;14.70;;
75700;SDS011;64321;48.796;44.740;2023-03-21T23:09:14;42.80;;;12.85;;
75700;SDS011;64321;48.796;44.740;2023-03-21T23:14:18;65.35;;;15.13;;
75700;SDS011;64321;48.796;44.740;2023-03-21T23:19:22;52.85;;;12.60;;
75700;SDS011;64321;48.796;44.740;2023-03-21T23:24:26;64.63;;;14.95;;
75700;SDS011;64321;48.796;44.740;2023-03-21T23:29:28;64.00;;;11.77;;
75700;SDS011;64321;48.796;44.740;2023-03-21T23:34:30;43.80;;;10.75;;
75700;SDS011;64321;48.796;44.740;2023-03-21T23:39:33;46.35;;;11.35;;
75700;SDS011;64321;48.796;44.740;2023-03-21T23:44:35;51.58;;;11.75;;
75700;SDS011;64321;48.796;44.740;2023-03-21T23:49:37;47.45;;;10.80;;
75700;SDS011;64321;48.796;44.740;2023-03-21T23:54:40;38.90;;;9.80;;
75700;SDS011;64321;48.796;44.740;2023-03-21T23:59:42;35.92;;;9.52;;
